FYKT/KMP METAR and TAF weather

Enter ICAO airport designator
Station Type Date Time Source
FYKT METAR 2019/12/05 15:00 UTC NOAA

FYKT 051500Z 03011KT 9999 FEW040TCU BKN090 29/10 Q1016


Station Type Date Time Source
FYKT Decoded METAR 2019/12/05 15:00 UTC NOAA

Keetmanshoop, Namibia (FYKT) 26-32S 018-07E 1100M
Dec 05, 2019 - 10:00 AM EST / 2019.12.05 1500 UTC
Wind: from the NNE (030 degrees) at 13 MPH (11 KT):0
Visibility: greater than 7 mile(s):0
Sky conditions: mostly cloudy
Weather: Towering cumulus clouds observed
Temperature: 84 F (29 C)
Dew Point: 50 F (10 C)
Relative Humidity: 30%
Pressure (altimeter): 30.00 in. Hg (1016 hPa)
ob: FYKT 051500Z 03011KT 9999 FEW040TCU BKN090 29/10 Q1016
cycle: 15

Station Type Date Time Source
FYKT TAF 2019/12/05 12:53 UTC NOAA

TAF FYKT 051000Z 0512/0612 33006KT 9999 SCT045
TEMPO 0513/0516 22013KT -TSRA FEW040CB
BECMG 0518/0520 17008KT NSW NSC

Example: see airport list